sensor_id;sensor_type;location;lat;lon;timestamp;P1;durP1;ratioP1;P2;durP2;ratioP2
22644;SDS011;11489;50.834;6.752;2022-12-05T00:00:32;28.83;;;13.43;;
22644;SDS011;11489;50.834;6.752;2022-12-05T00:03:02;30.27;;;14.63;;
22644;SDS011;11489;50.834;6.752;2022-12-05T00:05:29;28.23;;;13.40;;
22644;SDS011;11489;50.834;6.752;2022-12-05T00:07:54;29.33;;;15.17;;
22644;SDS011;11489;50.834;6.752;2022-12-05T00:10:20;27.50;;;13.50;;
22644;SDS011;11489;50.834;6.752;2022-12-05T00:12:46;28.13;;;13.40;;
22644;SDS011;11489;50.834;6.752;2022-12-05T00:15:11;27.37;;;12.27;;
22644;SDS011;11489;50.834;6.752;2022-12-05T00:17:38;27.17;;;13.57;;
22644;SDS011;11489;50.834;6.752;2022-12-05T00:20:05;27.93;;;13.17;;
22644;SDS011;11489;50.834;6.752;2022-12-05T00:22:34;26.23;;;13.30;;
22644;SDS011;11489;50.834;6.752;2022-12-05T00:25:02;30.90;;;13.67;;
22644;SDS011;11489;50.834;6.752;2022-12-05T00:27:32;28.67;;;13.73;;
22644;SDS011;11489;50.834;6.752;2022-12-05T00:29:58;33.23;;;14.53;;
22644;SDS011;11489;50.834;6.752;2022-12-05T00:32:23;26.60;;;13.70;;
22644;SDS011;11489;50.834;6.752;2022-12-05T00:34:49;32.87;;;14.27;;
22644;SDS011;11489;50.834;6.752;2022-12-05T00:37:15;29.67;;;14.60;;
22644;SDS011;11489;50.834;6.752;2022-12-05T00:39:40;30.23;;;14.53;;
22644;SDS011;11489;50.834;6.752;2022-12-05T00:42:06;28.50;;;14.27;;
22644;SDS011;11489;50.834;6.752;2022-12-05T00:44:32;31.57;;;14.53;;
22644;SDS011;11489;50.834;6.752;2022-12-05T00:46:57;29.90;;;14.60;;
22644;SDS011;11489;50.834;6.752;2022-12-05T00:49:23;33.60;;;14.97;;
22644;SDS011;11489;50.834;6.752;2022-12-05T00:51:49;31.37;;;15.17;;
22644;SDS011;11489;50.834;6.752;2022-12-05T00:54:15;28.90;;;13.83;;
22644;SDS011;11489;50.834;6.752;2022-12-05T00:56:41;26.90;;;13.87;;
22644;SDS011;11489;50.834;6.752;2022-12-05T00:59:08;30.13;;;14.57;;
22644;SDS011;11489;50.834;6.752;2022-12-05T01:01:40;28.70;;;14.47;;
22644;SDS011;11489;50.834;6.752;2022-12-05T01:04:08;30.50;;;14.20;;
22644;SDS011;11489;50.834;6.752;2022-12-05T01:06:37;33.63;;;15.53;;
22644;SDS011;11489;50.834;6.752;2022-12-05T01:09:04;33.57;;;14.90;;
22644;SDS011;11489;50.834;6.752;2022-12-05T01:11:30;28.33;;;14.17;;
22644;SDS011;11489;50.834;6.752;2022-12-05T01:13:56;31.97;;;15.23;;
22644;SDS011;11489;50.834;6.752;2022-12-05T01:16:23;33.03;;;15.27;;
22644;SDS011;11489;50.834;6.752;2022-12-05T01:19:11;33.53;;;15.20;;
22644;SDS011;11489;50.834;6.752;2022-12-05T01:21:57;35.00;;;15.53;;
22644;SDS011;11489;50.834;6.752;2022-12-05T01:24:24;40.40;;;16.30;;
22644;SDS011;11489;50.834;6.752;2022-12-05T01:26:52;33.77;;;14.90;;
22644;SDS011;11489;50.834;6.752;2022-12-05T01:29:19;31.73;;;15.50;;
22644;SDS011;11489;50.834;6.752;2022-12-05T01:31:46;34.27;;;15.97;;
22644;SDS011;11489;50.834;6.752;2022-12-05T01:34:13;34.83;;;16.07;;
22644;SDS011;11489;50.834;6.752;2022-12-05T01:36:40;34.50;;;15.37;;
22644;SDS011;11489;50.834;6.752;2022-12-05T01:39:06;31.57;;;15.33;;
22644;SDS011;11489;50.834;6.752;2022-12-05T01:41:34;33.73;;;15.10;;
22644;SDS011;11489;50.834;6.752;2022-12-05T01:46:44;32.60;;;15.37;;
22644;SDS011;11489;50.834;6.752;2022-12-05T01:49:20;35.77;;;15.53;;
22644;SDS011;11489;50.834;6.752;2022-12-05T01:51:50;34.57;;;14.87;;
22644;SDS011;11489;50.834;6.752;2022-12-05T01:54:19;28.00;;;13.83;;
22644;SDS011;11489;50.834;6.752;2022-12-05T01:56:47;32.83;;;15.07;;
22644;SDS011;11489;50.834;6.752;2022-12-05T01:59:17;33.67;;;14.77;;
22644;SDS011;11489;50.834;6.752;2022-12-05T02:01:45;30.40;;;14.47;;
22644;SDS011;11489;50.834;6.752;2022-12-05T02:04:10;32.17;;;14.40;;
22644;SDS011;11489;50.834;6.752;2022-12-05T02:06:36;30.73;;;14.10;;
22644;SDS011;11489;50.834;6.752;2022-12-05T02:09:02;31.83;;;14.50;;
22644;SDS011;11489;50.834;6.752;2022-12-05T02:11:28;33.23;;;14.57;;
22644;SDS011;11489;50.834;6.752;2022-12-05T02:15:01;31.93;;;14.27;;
22644;SDS011;11489;50.834;6.752;2022-12-05T02:17:06;32.40;;;14.20;;
22644;SDS011;11489;50.834;6.752;2022-12-05T02:19:46;28.47;;;13.00;;
22644;SDS011;11489;50.834;6.752;2022-12-05T02:30:53;29.63;;;13.07;;
22644;SDS011;11489;50.834;6.752;2022-12-05T02:39:20;30.90;;;12.93;;
22644;SDS011;11489;50.834;6.752;2022-12-05T02:42:04;27.47;;;11.53;;
22644;SDS011;11489;50.834;6.752;2022-12-05T02:44:51;28.13;;;12.50;;
22644;SDS011;11489;50.834;6.752;2022-12-05T02:47:22;27.50;;;12.73;;
22644;SDS011;11489;50.834;6.752;2022-12-05T02:49:51;29.77;;;13.43;;
22644;SDS011;11489;50.834;6.752;2022-12-05T02:52:18;30.37;;;13.67;;
22644;SDS011;11489;50.834;6.752;2022-12-05T02:54:46;28.53;;;12.50;;
22644;SDS011;11489;50.834;6.752;2022-12-05T02:57:14;33.13;;;13.87;;
22644;SDS011;11489;50.834;6.752;2022-12-05T02:59:41;30.33;;;12.33;;
22644;SDS011;11489;50.834;6.752;2022-12-05T03:02:07;29.40;;;13.77;;
22644;SDS011;11489;50.834;6.752;2022-12-05T03:04:45;28.97;;;13.07;;
22644;SDS011;11489;50.834;6.752;2022-12-05T03:07:11;29.07;;;13.50;;
22644;SDS011;11489;50.834;6.752;2022-12-05T03:09:42;24.80;;;12.00;;
22644;SDS011;11489;50.834;6.752;2022-12-05T03:12:15;26.77;;;12.53;;
22644;SDS011;11489;50.834;6.752;2022-12-05T03:14:52;28.70;;;13.13;;
22644;SDS011;11489;50.834;6.752;2022-12-05T03:17:24;25.70;;;12.83;;
22644;SDS011;11489;50.834;6.752;2022-12-05T03:24:54;30.87;;;13.50;;
22644;SDS011;11489;50.834;6.752;2022-12-05T03:27:24;28.77;;;13.40;;
22644;SDS011;11489;50.834;6.752;2022-12-05T03:29:56;31.10;;;13.50;;
22644;SDS011;11489;50.834;6.752;2022-12-05T03:32:39;29.73;;;13.47;;
22644;SDS011;11489;50.834;6.752;2022-12-05T03:35:51;28.43;;;13.17;;
22644;SDS011;11489;50.834;6.752;2022-12-05T03:38:57;28.07;;;12.80;;
22644;SDS011;11489;50.834;6.752;2022-12-05T03:47:51;31.77;;;12.43;;
22644;SDS011;11489;50.834;6.752;2022-12-05T03:50:26;27.47;;;13.03;;
22644;SDS011;11489;50.834;6.752;2022-12-05T03:52:58;30.27;;;13.60;;
22644;SDS011;11489;50.834;6.752;2022-12-05T03:55:30;30.90;;;13.87;;
22644;SDS011;11489;50.834;6.752;2022-12-05T03:58:06;29.00;;;14.10;;
22644;SDS011;11489;50.834;6.752;2022-12-05T04:00:44;30.43;;;14.30;;
22644;SDS011;11489;50.834;6.752;2022-12-05T04:03:20;31.73;;;14.83;;
22644;SDS011;11489;50.834;6.752;2022-12-05T04:06:03;31.20;;;13.60;;
22644;SDS011;11489;50.834;6.752;2022-12-05T04:08:39;27.20;;;13.20;;
22644;SDS011;11489;50.834;6.752;2022-12-05T04:11:14;27.53;;;13.37;;
22644;SDS011;11489;50.834;6.752;2022-12-05T04:13:44;29.93;;;14.07;;
22644;SDS011;11489;50.834;6.752;2022-12-05T04:16:17;29.53;;;13.50;;
22644;SDS011;11489;50.834;6.752;2022-12-05T04:21:36;31.83;;;14.43;;
22644;SDS011;11489;50.834;6.752;2022-12-05T04:24:10;32.33;;;14.30;;
22644;SDS011;11489;50.834;6.752;2022-12-05T04:27:09;34.93;;;13.40;;
22644;SDS011;11489;50.834;6.752;2022-12-05T04:30:03;34.77;;;14.07;;
22644;SDS011;11489;50.834;6.752;2022-12-05T04:32:40;29.37;;;13.37;;
22644;SDS011;11489;50.834;6.752;2022-12-05T04:35:13;27.67;;;13.60;;
22644;SDS011;11489;50.834;6.752;2022-12-05T04:37:48;30.90;;;12.67;;
22644;SDS011;11489;50.834;6.752;2022-12-05T04:40:22;28.17;;;12.90;;
22644;SDS011;11489;50.834;6.752;2022-12-05T04:42:53;26.63;;;12.50;;
22644;SDS011;11489;50.834;6.752;2022-12-05T04:45:20;27.23;;;12.67;;
22644;SDS011;11489;50.834;6.752;2022-12-05T04:47:50;31.03;;;14.13;;
22644;SDS011;11489;50.834;6.752;2022-12-05T04:50:21;25.93;;;12.57;;
22644;SDS011;11489;50.834;6.752;2022-12-05T04:52:49;28.03;;;12.97;;
22644;SDS011;11489;50.834;6.752;2022-12-05T04:55:21;28.07;;;13.10;;
22644;SDS011;11489;50.834;6.752;2022-12-05T04:58:06;27.30;;;13.80;;
22644;SDS011;11489;50.834;6.752;2022-12-05T05:00:43;25.30;;;11.70;;
22644;SDS011;11489;50.834;6.752;2022-12-05T05:03:28;28.03;;;12.70;;
22644;SDS011;11489;50.834;6.752;2022-12-05T05:06:14;30.03;;;13.50;;
22644;SDS011;11489;50.834;6.752;2022-12-05T05:08:48;31.30;;;13.87;;
22644;SDS011;11489;50.834;6.752;2022-12-05T05:13:49;31.77;;;13.80;;
22644;SDS011;11489;50.834;6.752;2022-12-05T05:16:16;31.77;;;14.20;;
22644;SDS011;11489;50.834;6.752;2022-12-05T05:18:44;26.27;;;12.67;;
22644;SDS011;11489;50.834;6.752;2022-12-05T05:21:14;28.50;;;12.80;;
22644;SDS011;11489;50.834;6.752;2022-12-05T05:23:41;29.47;;;13.77;;
22644;SDS011;11489;50.834;6.752;2022-12-05T05:26:07;31.67;;;13.47;;
22644;SDS011;11489;50.834;6.752;2022-12-05T05:28:33;29.37;;;13.00;;
22644;SDS011;11489;50.834;6.752;2022-12-05T05:31:02;32.70;;;12.73;;
22644;SDS011;11489;50.834;6.752;2022-12-05T05:33:28;27.13;;;13.03;;
22644;SDS011;11489;50.834;6.752;2022-12-05T05:35:54;34.73;;;13.23;;
22644;SDS011;11489;50.834;6.752;2022-12-05T05:38:19;26.37;;;13.30;;
22644;SDS011;11489;50.834;6.752;2022-12-05T05:40:45;30.20;;;13.30;;
22644;SDS011;11489;50.834;6.752;2022-12-05T05:43:11;31.97;;;13.90;;
22644;SDS011;11489;50.834;6.752;2022-12-05T05:45:36;26.77;;;12.67;;
22644;SDS011;11489;50.834;6.752;2022-12-05T05:48:02;29.37;;;13.43;;
22644;SDS011;11489;50.834;6.752;2022-12-05T05:50:28;32.47;;;14.43;;
22644;SDS011;11489;50.834;6.752;2022-12-05T05:52:53;31.23;;;14.03;;
22644;SDS011;11489;50.834;6.752;2022-12-05T05:55:19;25.90;;;13.70;;
22644;SDS011;11489;50.834;6.752;2022-12-05T05:57:45;27.27;;;13.03;;
22644;SDS011;11489;50.834;6.752;2022-12-05T06:00:11;28.83;;;12.73;;
22644;SDS011;11489;50.834;6.752;2022-12-05T06:02:37;26.13;;;12.40;;
22644;SDS011;11489;50.834;6.752;2022-12-05T06:05:03;30.43;;;13.87;;
22644;SDS011;11489;50.834;6.752;2022-12-05T06:07:29;26.57;;;12.77;;
22644;SDS011;11489;50.834;6.752;2022-12-05T06:09:55;26.90;;;12.57;;
22644;SDS011;11489;50.834;6.752;2022-12-05T06:12:21;25.97;;;11.63;;
22644;SDS011;11489;50.834;6.752;2022-12-05T06:14:47;26.83;;;12.80;;
22644;SDS011;11489;50.834;6.752;2022-12-05T06:17:14;26.60;;;12.47;;
22644;SDS011;11489;50.834;6.752;2022-12-05T06:19:40;28.13;;;13.03;;
22644;SDS011;11489;50.834;6.752;2022-12-05T06:22:06;29.40;;;13.63;;
22644;SDS011;11489;50.834;6.752;2022-12-05T06:24:32;28.27;;;12.97;;
22644;SDS011;11489;50.834;6.752;2022-12-05T06:26:58;26.67;;;12.37;;
22644;SDS011;11489;50.834;6.752;2022-12-05T06:29:23;26.40;;;12.57;;
22644;SDS011;11489;50.834;6.752;2022-12-05T06:31:49;25.03;;;12.93;;
22644;SDS011;11489;50.834;6.752;2022-12-05T06:34:14;24.57;;;11.43;;
22644;SDS011;11489;50.834;6.752;2022-12-05T06:36:41;25.60;;;11.87;;
22644;SDS011;11489;50.834;6.752;2022-12-05T06:39:07;26.13;;;12.70;;
22644;SDS011;11489;50.834;6.752;2022-12-05T06:41:33;25.53;;;12.30;;
22644;SDS011;11489;50.834;6.752;2022-12-05T06:43:59;23.77;;;12.00;;
22644;SDS011;11489;50.834;6.752;2022-12-05T06:46:25;26.30;;;12.30;;
22644;SDS011;11489;50.834;6.752;2022-12-05T06:48:51;25.47;;;12.60;;
22644;SDS011;11489;50.834;6.752;2022-12-05T06:51:18;25.73;;;12.17;;
22644;SDS011;11489;50.834;6.752;2022-12-05T06:53:44;25.90;;;12.23;;
22644;SDS011;11489;50.834;6.752;2022-12-05T06:56:11;24.20;;;11.73;;
22644;SDS011;11489;50.834;6.752;2022-12-05T06:58:43;22.97;;;11.47;;
22644;SDS011;11489;50.834;6.752;2022-12-05T07:01:14;27.17;;;12.07;;
22644;SDS011;11489;50.834;6.752;2022-12-05T07:04:00;25.93;;;11.73;;
22644;SDS011;11489;50.834;6.752;2022-12-05T07:06:26;24.50;;;11.50;;
22644;SDS011;11489;50.834;6.752;2022-12-05T07:08:52;26.03;;;11.67;;
22644;SDS011;11489;50.834;6.752;2022-12-05T07:11:19;21.97;;;11.87;;
22644;SDS011;11489;50.834;6.752;2022-12-05T07:13:45;24.20;;;12.23;;
22644;SDS011;11489;50.834;6.752;2022-12-05T07:16:11;27.43;;;12.50;;
22644;SDS011;11489;50.834;6.752;2022-12-05T07:18:36;24.27;;;11.93;;
22644;SDS011;11489;50.834;6.752;2022-12-05T07:21:03;26.00;;;12.23;;
22644;SDS011;11489;50.834;6.752;2022-12-05T07:23:31;25.47;;;12.20;;
22644;SDS011;11489;50.834;6.752;2022-12-05T07:25:57;24.03;;;12.10;;
22644;SDS011;11489;50.834;6.752;2022-12-05T07:28:24;21.60;;;11.73;;
22644;SDS011;11489;50.834;6.752;2022-12-05T07:33:47;24.97;;;12.23;;
22644;SDS011;11489;50.834;6.752;2022-12-05T07:36:19;25.30;;;12.27;;
22644;SDS011;11489;50.834;6.752;2022-12-05T07:38:46;25.63;;;12.20;;
22644;SDS011;11489;50.834;6.752;2022-12-05T07:41:18;26.03;;;12.37;;
22644;SDS011;11489;50.834;6.752;2022-12-05T07:43:46;26.77;;;12.77;;
22644;SDS011;11489;50.834;6.752;2022-12-05T07:46:12;25.73;;;12.63;;
22644;SDS011;11489;50.834;6.752;2022-12-05T07:48:38;25.03;;;12.50;;
22644;SDS011;11489;50.834;6.752;2022-12-05T07:51:05;25.63;;;12.50;;
22644;SDS011;11489;50.834;6.752;2022-12-05T07:53:32;24.10;;;11.83;;
22644;SDS011;11489;50.834;6.752;2022-12-05T07:55:58;25.17;;;13.13;;
22644;SDS011;11489;50.834;6.752;2022-12-05T07:58:26;25.77;;;12.73;;
22644;SDS011;11489;50.834;6.752;2022-12-05T08:00:53;27.03;;;13.20;;
22644;SDS011;11489;50.834;6.752;2022-12-05T08:03:19;27.67;;;12.93;;
22644;SDS011;11489;50.834;6.752;2022-12-05T08:05:44;23.77;;;12.30;;
22644;SDS011;11489;50.834;6.752;2022-12-05T08:08:10;27.43;;;12.07;;
22644;SDS011;11489;50.834;6.752;2022-12-05T08:10:36;25.40;;;12.10;;
22644;SDS011;11489;50.834;6.752;2022-12-05T08:13:01;23.87;;;12.00;;
22644;SDS011;11489;50.834;6.752;2022-12-05T08:15:27;26.03;;;11.93;;
22644;SDS011;11489;50.834;6.752;2022-12-05T08:17:53;23.93;;;12.23;;
22644;SDS011;11489;50.834;6.752;2022-12-05T08:20:18;21.83;;;11.50;;
22644;SDS011;11489;50.834;6.752;2022-12-05T08:22:44;23.30;;;11.73;;
22644;SDS011;11489;50.834;6.752;2022-12-05T08:25:09;24.90;;;12.00;;
22644;SDS011;11489;50.834;6.752;2022-12-05T08:27:36;22.80;;;12.03;;
22644;SDS011;11489;50.834;6.752;2022-12-05T08:30:02;23.57;;;12.47;;
22644;SDS011;11489;50.834;6.752;2022-12-05T08:32:29;29.27;;;14.27;;
22644;SDS011;11489;50.834;6.752;2022-12-05T08:34:54;32.93;;;15.07;;
22644;SDS011;11489;50.834;6.752;2022-12-05T08:37:20;32.43;;;14.17;;
22644;SDS011;11489;50.834;6.752;2022-12-05T08:39:46;26.33;;;13.30;;
22644;SDS011;11489;50.834;6.752;2022-12-05T08:42:12;26.53;;;12.87;;
22644;SDS011;11489;50.834;6.752;2022-12-05T08:44:38;27.50;;;12.60;;
22644;SDS011;11489;50.834;6.752;2022-12-05T08:47:03;25.77;;;13.87;;
22644;SDS011;11489;50.834;6.752;2022-12-05T08:49:29;33.50;;;15.10;;
22644;SDS011;11489;50.834;6.752;2022-12-05T08:51:55;33.00;;;15.70;;
22644;SDS011;11489;50.834;6.752;2022-12-05T08:54:20;32.33;;;15.20;;
22644;SDS011;11489;50.834;6.752;2022-12-05T08:56:48;31.47;;;15.73;;
22644;SDS011;11489;50.834;6.752;2022-12-05T08:59:14;33.60;;;15.33;;
22644;SDS011;11489;50.834;6.752;2022-12-05T09:01:40;35.33;;;16.63;;
22644;SDS011;11489;50.834;6.752;2022-12-05T09:04:06;40.80;;;17.23;;
22644;SDS011;11489;50.834;6.752;2022-12-05T09:06:32;41.40;;;17.10;;
22644;SDS011;11489;50.834;6.752;2022-12-05T09:09:00;41.07;;;17.87;;
22644;SDS011;11489;50.834;6.752;2022-12-05T09:11:30;34.90;;;15.50;;
22644;SDS011;11489;50.834;6.752;2022-12-05T09:13:59;36.87;;;17.30;;
22644;SDS011;11489;50.834;6.752;2022-12-05T09:16:26;32.97;;;16.63;;
22644;SDS011;11489;50.834;6.752;2022-12-05T09:18:56;29.63;;;15.23;;
22644;SDS011;11489;50.834;6.752;2022-12-05T09:21:23;28.93;;;15.20;;
22644;SDS011;11489;50.834;6.752;2022-12-05T09:23:51;31.20;;;14.80;;
22644;SDS011;11489;50.834;6.752;2022-12-05T09:26:17;29.60;;;13.40;;
22644;SDS011;11489;50.834;6.752;2022-12-05T09:28:45;24.87;;;12.90;;
22644;SDS011;11489;50.834;6.752;2022-12-05T09:31:12;25.70;;;12.97;;
22644;SDS011;11489;50.834;6.752;2022-12-05T09:33:39;24.27;;;12.33;;
22644;SDS011;11489;50.834;6.752;2022-12-05T09:36:12;22.53;;;12.20;;
22644;SDS011;11489;50.834;6.752;2022-12-05T09:38:43;22.80;;;12.00;;
22644;SDS011;11489;50.834;6.752;2022-12-05T09:44:57;23.53;;;11.30;;
22644;SDS011;11489;50.834;6.752;2022-12-05T09:47:14;21.53;;;12.13;;
22644;SDS011;11489;50.834;6.752;2022-12-05T09:50:05;20.13;;;11.13;;
22644;SDS011;11489;50.834;6.752;2022-12-05T09:52:38;22.20;;;12.33;;
22644;SDS011;11489;50.834;6.752;2022-12-05T09:55:15;19.93;;;11.57;;
22644;SDS011;11489;50.834;6.752;2022-12-05T09:57:53;22.67;;;12.20;;
22644;SDS011;11489;50.834;6.752;2022-12-05T10:00:22;21.60;;;11.77;;
22644;SDS011;11489;50.834;6.752;2022-12-05T10:10:54;25.73;;;12.93;;
22644;SDS011;11489;50.834;6.752;2022-12-05T10:16:08;24.93;;;12.87;;
22644;SDS011;11489;50.834;6.752;2022-12-05T10:21:20;21.97;;;11.27;;
22644;SDS011;11489;50.834;6.752;2022-12-05T10:23:53;21.33;;;11.63;;
22644;SDS011;11489;50.834;6.752;2022-12-05T10:26:22;20.37;;;11.07;;
22644;SDS011;11489;50.834;6.752;2022-12-05T10:28:57;23.27;;;11.80;;
22644;SDS011;11489;50.834;6.752;2022-12-05T10:31:34;21.83;;;11.63;;
22644;SDS011;11489;50.834;6.752;2022-12-05T10:34:48;21.50;;;11.20;;
22644;SDS011;11489;50.834;6.752;2022-12-05T10:37:08;20.30;;;11.20;;
22644;SDS011;11489;50.834;6.752;2022-12-05T10:39:46;22.37;;;11.43;;
22644;SDS011;11489;50.834;6.752;2022-12-05T10:42:18;23.80;;;11.97;;
22644;SDS011;11489;50.834;6.752;2022-12-05T10:44:54;23.40;;;11.63;;
22644;SDS011;11489;50.834;6.752;2022-12-05T10:47:22;21.90;;;11.57;;
22644;SDS011;11489;50.834;6.752;2022-12-05T10:49:48;21.33;;;11.60;;
22644;SDS011;11489;50.834;6.752;2022-12-05T10:52:14;22.53;;;11.97;;
22644;SDS011;11489;50.834;6.752;2022-12-05T10:54:48;25.50;;;12.63;;
22644;SDS011;11489;50.834;6.752;2022-12-05T10:57:29;21.00;;;12.00;;
22644;SDS011;11489;50.834;6.752;2022-12-05T10:59:54;21.63;;;11.40;;
22644;SDS011;11489;50.834;6.752;2022-12-05T11:02:25;21.23;;;11.77;;
22644;SDS011;11489;50.834;6.752;2022-12-05T11:04:52;20.13;;;11.53;;
22644;SDS011;11489;50.834;6.752;2022-12-05T11:07:32;19.93;;;11.03;;
22644;SDS011;11489;50.834;6.752;2022-12-05T11:09:58;18.60;;;11.07;;
22644;SDS011;11489;50.834;6.752;2022-12-05T11:12:27;20.17;;;12.03;;
22644;SDS011;11489;50.834;6.752;2022-12-05T11:15:01;21.50;;;12.63;;
22644;SDS011;11489;50.834;6.752;2022-12-05T11:17:47;22.10;;;11.17;;
22644;SDS011;11489;50.834;6.752;2022-12-05T11:22:43;22.03;;;12.33;;
22644;SDS011;11489;50.834;6.752;2022-12-05T11:27:49;21.57;;;12.53;;
22644;SDS011;11489;50.834;6.752;2022-12-05T11:30:19;24.63;;;13.33;;
22644;SDS011;11489;50.834;6.752;2022-12-05T11:32:46;24.23;;;12.73;;
22644;SDS011;11489;50.834;6.752;2022-12-05T11:35:25;21.83;;;11.90;;
22644;SDS011;11489;50.834;6.752;2022-12-05T11:38:00;20.97;;;12.53;;
22644;SDS011;11489;50.834;6.752;2022-12-05T11:58:41;20.57;;;11.60;;
22644;SDS011;11489;50.834;6.752;2022-12-05T12:01:14;21.03;;;11.77;;
22644;SDS011;11489;50.834;6.752;2022-12-05T12:04:12;38.47;;;16.07;;
22644;SDS011;11489;50.834;6.752;2022-12-05T12:12:04;23.33;;;12.87;;
22644;SDS011;11489;50.834;6.752;2022-12-05T12:15:02;27.80;;;13.73;;
22644;SDS011;11489;50.834;6.752;2022-12-05T12:17:59;23.33;;;12.77;;
22644;SDS011;11489;50.834;6.752;2022-12-05T12:21:23;24.67;;;13.03;;
22644;SDS011;11489;50.834;6.752;2022-12-05T12:23:38;25.10;;;13.10;;
22644;SDS011;11489;50.834;6.752;2022-12-05T12:26:34;25.83;;;12.90;;
22644;SDS011;11489;50.834;6.752;2022-12-05T12:37:04;27.43;;;13.97;;
22644;SDS011;11489;50.834;6.752;2022-12-05T12:40:02;24.77;;;13.23;;
22644;SDS011;11489;50.834;6.752;2022-12-05T12:42:48;26.10;;;14.50;;
22644;SDS011;11489;50.834;6.752;2022-12-05T12:50:58;24.63;;;13.07;;
22644;SDS011;11489;50.834;6.752;2022-12-05T12:59:04;29.50;;;14.90;;
22644;SDS011;11489;50.834;6.752;2022-12-05T13:02:00;26.13;;;14.37;;
22644;SDS011;11489;50.834;6.752;2022-12-05T13:04:40;27.07;;;14.33;;
22644;SDS011;11489;50.834;6.752;2022-12-05T13:09:46;28.73;;;15.83;;
22644;SDS011;11489;50.834;6.752;2022-12-05T13:12:15;27.93;;;14.47;;
22644;SDS011;11489;50.834;6.752;2022-12-05T13:15:09;27.73;;;14.90;;
22644;SDS011;11489;50.834;6.752;2022-12-05T13:17:36;26.30;;;14.47;;
22644;SDS011;11489;50.834;6.752;2022-12-05T13:20:05;27.97;;;14.77;;
22644;SDS011;11489;50.834;6.752;2022-12-05T13:22:38;26.40;;;13.87;;
22644;SDS011;11489;50.834;6.752;2022-12-05T13:25:04;26.93;;;13.67;;
22644;SDS011;11489;50.834;6.752;2022-12-05T13:27:30;23.33;;;13.13;;
22644;SDS011;11489;50.834;6.752;2022-12-05T13:29:56;23.87;;;13.30;;
22644;SDS011;11489;50.834;6.752;2022-12-05T13:34:56;21.20;;;12.40;;
22644;SDS011;11489;50.834;6.752;2022-12-05T13:38:02;23.43;;;12.57;;
22644;SDS011;11489;50.834;6.752;2022-12-05T13:40:49;25.83;;;13.17;;
22644;SDS011;11489;50.834;6.752;2022-12-05T13:43:39;26.23;;;13.33;;
22644;SDS011;11489;50.834;6.752;2022-12-05T13:46:09;25.80;;;13.67;;
22644;SDS011;11489;50.834;6.752;2022-12-05T13:48:43;25.17;;;13.53;;
22644;SDS011;11489;50.834;6.752;2022-12-05T13:51:27;25.50;;;14.00;;
22644;SDS011;11489;50.834;6.752;2022-12-05T13:54:00;25.13;;;13.53;;
22644;SDS011;11489;50.834;6.752;2022-12-05T14:12:56;29.67;;;15.50;;
22644;SDS011;11489;50.834;6.752;2022-12-05T14:33:44;26.30;;;14.23;;
22644;SDS011;11489;50.834;6.752;2022-12-05T14:36:14;27.23;;;14.17;;
22644;SDS011;11489;50.834;6.752;2022-12-05T14:38:54;25.83;;;14.23;;
22644;SDS011;11489;50.834;6.752;2022-12-05T14:41:25;26.70;;;13.90;;
22644;SDS011;11489;50.834;6.752;2022-12-05T14:43:56;26.23;;;13.37;;
22644;SDS011;11489;50.834;6.752;2022-12-05T14:46:26;25.63;;;13.27;;
22644;SDS011;11489;50.834;6.752;2022-12-05T14:48:54;26.73;;;13.60;;
22644;SDS011;11489;50.834;6.752;2022-12-05T14:53:55;24.40;;;13.43;;
22644;SDS011;11489;50.834;6.752;2022-12-05T14:56:43;26.10;;;13.00;;
22644;SDS011;11489;50.834;6.752;2022-12-05T14:59:18;26.23;;;13.23;;
22644;SDS011;11489;50.834;6.752;2022-12-05T15:01:56;25.60;;;13.90;;
22644;SDS011;11489;50.834;6.752;2022-12-05T15:04:30;25.63;;;14.43;;
22644;SDS011;11489;50.834;6.752;2022-12-05T15:07:04;27.47;;;14.23;;
22644;SDS011;11489;50.834;6.752;2022-12-05T15:12:42;29.63;;;14.90;;
22644;SDS011;11489;50.834;6.752;2022-12-05T15:15:19;24.53;;;13.90;;
22644;SDS011;11489;50.834;6.752;2022-12-05T15:26:15;24.83;;;13.10;;
22644;SDS011;11489;50.834;6.752;2022-12-05T15:31:29;23.27;;;13.03;;
22644;SDS011;11489;50.834;6.752;2022-12-05T15:33:59;22.73;;;13.07;;
22644;SDS011;11489;50.834;6.752;2022-12-05T15:36:54;24.57;;;13.57;;
22644;SDS011;11489;50.834;6.752;2022-12-05T15:39:24;26.70;;;14.17;;
22644;SDS011;11489;50.834;6.752;2022-12-05T15:41:52;26.50;;;14.43;;
22644;SDS011;11489;50.834;6.752;2022-12-05T15:44:20;26.97;;;15.03;;
22644;SDS011;11489;50.834;6.752;2022-12-05T15:46:51;30.63;;;16.33;;
22644;SDS011;11489;50.834;6.752;2022-12-05T15:49:21;32.60;;;15.63;;
22644;SDS011;11489;50.834;6.752;2022-12-05T15:51:57;26.80;;;14.47;;
22644;SDS011;11489;50.834;6.752;2022-12-05T15:54:36;26.27;;;14.23;;
22644;SDS011;11489;50.834;6.752;2022-12-05T15:57:05;28.90;;;15.93;;
22644;SDS011;11489;50.834;6.752;2022-12-05T15:59:37;29.47;;;15.33;;
22644;SDS011;11489;50.834;6.752;2022-12-05T16:02:16;28.27;;;15.00;;
22644;SDS011;11489;50.834;6.752;2022-12-05T16:04:47;29.43;;;15.80;;
22644;SDS011;11489;50.834;6.752;2022-12-05T16:07:15;26.77;;;14.37;;
22644;SDS011;11489;50.834;6.752;2022-12-05T16:09:42;28.53;;;14.93;;
22644;SDS011;11489;50.834;6.752;2022-12-05T16:12:17;28.37;;;15.10;;
22644;SDS011;11489;50.834;6.752;2022-12-05T16:15:04;26.50;;;14.80;;
22644;SDS011;11489;50.834;6.752;2022-12-05T16:17:41;26.07;;;14.63;;
22644;SDS011;11489;50.834;6.752;2022-12-05T16:22:43;27.17;;;13.57;;
22644;SDS011;11489;50.834;6.752;2022-12-05T16:25:12;25.07;;;13.77;;
22644;SDS011;11489;50.834;6.752;2022-12-05T16:27:40;25.70;;;13.97;;
22644;SDS011;11489;50.834;6.752;2022-12-05T16:32:37;26.10;;;14.57;;
22644;SDS011;11489;50.834;6.752;2022-12-05T16:35:24;26.63;;;14.70;;
22644;SDS011;11489;50.834;6.752;2022-12-05T16:40:49;27.30;;;13.77;;
22644;SDS011;11489;50.834;6.752;2022-12-05T16:43:22;26.43;;;13.90;;
22644;SDS011;11489;50.834;6.752;2022-12-05T16:46:42;23.57;;;13.37;;
22644;SDS011;11489;50.834;6.752;2022-12-05T16:49:11;25.60;;;13.90;;
22644;SDS011;11489;50.834;6.752;2022-12-05T16:51:40;24.17;;;13.27;;
22644;SDS011;11489;50.834;6.752;2022-12-05T16:54:08;22.80;;;13.30;;
22644;SDS011;11489;50.834;6.752;2022-12-05T16:56:34;25.80;;;13.80;;
22644;SDS011;11489;50.834;6.752;2022-12-05T16:59:00;26.67;;;13.87;;
22644;SDS011;11489;50.834;6.752;2022-12-05T17:01:30;25.83;;;13.43;;
22644;SDS011;11489;50.834;6.752;2022-12-05T17:03:57;23.90;;;13.73;;
22644;SDS011;11489;50.834;6.752;2022-12-05T17:06:24;24.37;;;13.57;;
22644;SDS011;11489;50.834;6.752;2022-12-05T17:08:51;27.17;;;13.80;;
22644;SDS011;11489;50.834;6.752;2022-12-05T17:11:24;23.30;;;12.80;;
22644;SDS011;11489;50.834;6.752;2022-12-05T17:13:52;26.27;;;14.03;;
22644;SDS011;11489;50.834;6.752;2022-12-05T17:16:20;23.13;;;13.47;;
22644;SDS011;11489;50.834;6.752;2022-12-05T17:18:45;23.80;;;13.63;;
22644;SDS011;11489;50.834;6.752;2022-12-05T17:21:15;22.93;;;13.57;;
22644;SDS011;11489;50.834;6.752;2022-12-05T17:23:43;24.23;;;13.73;;
22644;SDS011;11489;50.834;6.752;2022-12-05T17:26:13;23.83;;;13.93;;
22644;SDS011;11489;50.834;6.752;2022-12-05T17:28:43;22.67;;;13.27;;
22644;SDS011;11489;50.834;6.752;2022-12-05T17:31:20;23.33;;;13.87;;